Time;durP1;ratioP1;P1;durP2;ratioP2;P2;SDS_P1;SDS_P2;PMS_P1;PMS_P2;Temp;Humidity;BMP_temperature;BMP_pressure;BME280_temperature;BME280_humidity;BME280_pressure;Samples;Min_cycle;Max_cycle;Signal;HPM_P1;HPM_P2
2023/12/29 00:00:13;;;;;;;96.18;55.95;;;;;;;8.70;82.29;102054.19;4982459;28;20128;-78
2023/12/29 00:02:39;;;;;;;88.97;56.88;;;;;;;8.72;82.52;102066.41;4999484;28;20058;-81
2023/12/29 00:05:07;;;;;;;95.47;59.05;;;;;;;8.86;82.42;102073.56;4981501;28;20049;-79
2023/12/29 00:07:34;;;;;;;96.80;57.67;;;;;;;8.96;82.62;102071.22;4964860;28;20055;-79
2023/12/29 00:10:00;;;;;;;91.13;58.50;;;;;;;9.12;82.05;102074.66;4985458;28;20418;-79
2023/12/29 00:12:27;;;;;;;84.65;55.65;;;;;;;8.63;82.37;102008.69;4957530;28;20180;-79
2023/12/29 00:14:57;;;;;;;96.40;56.75;;;;;;;8.85;81.86;102063.88;4994371;28;20068;-79
2023/12/29 00:17:26;;;;;;;102.88;61.20;;;;;;;8.65;82.24;102035.94;4997422;28;20053;-79
2023/12/29 00:19:55;;;;;;;89.65;57.33;;;;;;;8.76;82.79;102049.41;5005836;28;20045;-80
2023/12/29 00:22:27;;;;;;;96.18;57.03;;;;;;;8.93;82.63;102066.06;5009471;28;20132;-80
2023/12/29 00:24:54;;;;;;;91.00;55.38;;;;;;;8.82;82.71;102048.19;4992991;28;20056;-79
2023/12/29 00:27:23;;;;;;;94.45;55.95;;;;;;;8.87;82.66;102066.47;4988473;28;20057;-81
2023/12/29 00:29:50;;;;;;;96.75;58.75;;;;;;;8.69;82.96;102032.16;5010468;28;20451;-78
2023/12/29 00:32:17;;;;;;;99.15;58.00;;;;;;;8.38;83.11;101980.13;4971533;28;20427;-79
2023/12/29 00:34:51;;;;;;;136.35;83.05;;;;;;;8.79;83.64;102029.84;4993824;28;20861;-78
2023/12/29 00:37:21;;;;;;;99.15;58.40;;;;;;;8.63;83.44;102013.97;5011824;28;20126;-79
2023/12/29 00:39:48;;;;;;;97.35;60.65;;;;;;;8.59;83.57;102009.78;4974907;28;20041;-80
2023/12/29 00:42:14;;;;;;;100.57;58.20;;;;;;;8.60;83.45;102015.97;4981161;28;20132;-78
2023/12/29 00:44:41;;;;;;;92.30;59.42;;;;;;;8.52;83.34;102008.47;4992815;28;20136;-80
2023/12/29 00:47:09;;;;;;;96.72;59.38;;;;;;;8.70;83.56;102047.09;4972639;28;20500;-78
2023/12/29 00:49:41;;;;;;;94.68;59.00;;;;;;;8.23;84.01;101965.97;4966762;28;20112;-79
2023/12/29 00:52:08;;;;;;;94.22;57.45;;;;;;;8.65;84.23;102041.22;4981507;28;20050;-81
2023/12/29 00:54:35;;;;;;;97.60;60.92;;;;;;;8.56;84.67;102033.81;4973416;28;20515;-79
2023/12/29 00:57:02;;;;;;;96.53;60.90;;;;;;;8.54;84.23;102027.75;4975568;28;20049;-81
2023/12/29 00:59:28;;;;;;;100.75;64.07;;;;;;;8.68;84.22;102030.44;4945921;28;20127;-80
2023/12/29 01:01:55;;;;;;;94.70;59.55;;;;;;;8.65;83.89;102020.03;4983705;28;20057;-79
2023/12/29 01:04:22;;;;;;;95.30;57.08;;;;;;;8.75;83.70;102031.78;4979463;28;20225;-79
2023/12/29 01:06:49;;;;;;;94.13;60.47;;;;;;;8.63;83.73;102006.03;4973118;28;20085;-79
2023/12/29 01:09:16;;;;;;;92.97;60.80;;;;;;;8.58;83.82;101992.22;4974652;28;20046;-81
2023/12/29 01:11:43;;;;;;;92.28;59.17;;;;;;;8.89;84.17;102032.78;4965509;28;20080;-80
2023/12/29 01:14:12;;;;;;;92.53;58.70;;;;;;;8.83;83.69;102018.09;4961447;28;20053;-80
2023/12/29 01:16:38;;;;;;;88.80;56.45;;;;;;;8.84;83.63;102022.47;5008820;28;20060;-79
2023/12/29 01:19:06;;;;;;;101.10;59.35;;;;;;;8.69;83.53;102004.81;4991959;28;20049;-80
2023/12/29 01:21:39;;;;;;;95.57;59.55;;;;;;;8.61;83.85;101992.03;4994134;28;20053;-79
2023/12/29 01:24:07;;;;;;;95.90;59.72;;;;;;;8.90;83.70;102039.78;4988065;28;20455;-81
2023/12/29 01:26:38;;;;;;;103.60;61.17;;;;;;;8.86;84.10;102033.81;4987546;28;20053;-79
2023/12/29 01:29:06;;;;;;;101.47;60.10;;;;;;;8.97;84.29;102057.88;5007744;28;20123;-78
2023/12/29 01:31:36;;;;;;;99.85;62.65;;;;;;;8.88;83.96;102025.78;4976443;28;20114;-81
2023/12/29 01:34:10;;;;;;;93.50;59.00;;;;;;;8.54;83.43;101970.38;4982591;28;20045;-79
2023/12/29 01:36:40;;;;;;;96.07;61.30;;;;;;;8.87;83.92;102024.94;4988526;28;20156;-80
2023/12/29 01:39:07;;;;;;;88.85;59.00;;;;;;;8.92;83.61;102028.16;4987944;28;20052;-79
2023/12/29 01:41:37;;;;;;;96.68;62.45;;;;;;;8.93;83.57;102023.69;4951363;28;20054;-80
2023/12/29 01:44:19;;;;;;;95.50;59.97;;;;;;;9.05;83.21;102020.31;4974644;28;20565;-81
2023/12/29 01:47:01;;;;;;;99.32;62.72;;;;;;;9.22;83.05;102035.19;4984676;28;20041;-80
2023/12/29 01:49:29;;;;;;;101.65;64.22;;;;;;;9.25;82.72;102026.22;4969870;28;20432;-79
2023/12/29 01:52:00;;;;;;;101.57;58.55;;;;;;;9.17;82.85;102014.31;4978985;28;20042;-79
2023/12/29 01:54:38;;;;;;;94.15;59.75;;;;;;;9.27;83.21;102042.88;4949910;28;20092;-81
2023/12/29 01:57:05;;;;;;;96.30;63.60;;;;;;;9.25;83.45;102029.75;4958539;28;20115;-81
2023/12/29 01:59:35;;;;;;;89.97;58.85;;;;;;;9.24;83.63;102035.13;4930337;28;20247;-82
2023/12/29 02:02:02;;;;;;;87.10;57.72;;;;;;;9.16;83.72;102023.19;4938496;28;20049;-80
2023/12/29 02:04:30;;;;;;;96.03;60.67;;;;;;;9.22;84.14;102039.66;4977737;28;20148;-80
2023/12/29 02:06:57;;;;;;;93.20;58.95;;;;;;;9.16;84.12;102030.28;5007470;28;20422;-80
2023/12/29 02:09:24;;;;;;;98.95;63.45;;;;;;;9.07;83.86;102013.13;4999245;28;20172;-77
2023/12/29 02:11:54;;;;;;;87.15;59.88;;;;;;;9.14;83.75;102017.13;4956115;28;20405;-81
2023/12/29 02:14:21;;;;;;;95.65;59.22;;;;;;;9.07;83.52;101994.59;4974989;28;20049;-81
2023/12/29 02:17:00;;;;;;;91.50;58.80;;;;;;;9.41;82.67;102024.34;4986698;28;20237;-80
2023/12/29 02:19:27;;;;;;;86.20;56.45;;;;;;;8.94;83.00;101946.81;5002255;28;20045;-80
2023/12/29 02:21:54;;;;;;;90.15;56.75;;;;;;;9.03;83.16;101961.31;5009904;28;20052;-79
2023/12/29 02:24:24;;;;;;;86.15;56.22;;;;;;;9.38;83.50;102024.53;4992360;28;20279;-79
2023/12/29 02:27:02;;;;;;;82.35;51.08;;;;;;;8.95;82.64;101952.94;4998641;28;20084;-80
2023/12/29 02:29:32;;;;;;;82.43;51.20;;;;;;;9.25;82.63;101997.06;4986193;28;20659;-79
2023/12/29 02:32:09;;;;;;;62.33;43.97;;;;;;;9.27;82.24;102000.47;4983551;28;20045;-81
2023/12/29 02:34:38;;;;;;;63.03;43.55;;;;;;;9.36;82.19;102005.22;5000174;28;20140;-77
2023/12/29 02:37:10;;;;;;;66.13;42.92;;;;;;;9.19;81.57;101964.69;4959796;28;20165;-80
2023/12/29 02:39:37;;;;;;;57.90;39.65;;;;;;;9.10;81.39;101945.88;4964042;28;20269;-80
2023/12/29 02:42:05;;;;;;;55.60;37.20;;;;;;;9.41;81.33;101992.53;4952777;28;20060;-79
2023/12/29 02:44:31;;;;;;;57.55;37.83;;;;;;;9.35;81.69;101988.47;4944776;28;20061;-81
2023/12/29 02:46:59;;;;;;;43.13;29.48;;;;;;;9.31;80.85;101975.50;4948179;28;20073;-80
2023/12/29 02:49:27;;;;;;;44.78;31.35;;;;;;;9.37;80.81;101986.59;4952825;28;20050;-79
2023/12/29 02:51:56;;;;;;;34.63;24.52;;;;;;;9.47;80.31;101997.47;4947454;28;20468;-79
2023/12/29 02:54:23;;;;;;;36.08;20.52;;;;;;;9.38;79.35;101971.53;4971813;28;20046;-77
2023/12/29 02:56:50;;;;;;;27.80;20.02;;;;;;;9.60;78.48;101985.13;4945914;28;20046;-79
2023/12/29 02:59:17;;;;;;;24.17;18.38;;;;;;;9.51;78.54;101956.53;4943926;28;20132;-79
2023/12/29 03:01:43;;;;;;;28.27;19.75;;;;;;;9.51;78.02;101961.00;4954957;28;20107;-77
2023/12/29 03:04:11;;;;;;;25.38;18.02;;;;;;;9.70;77.48;101984.56;4958405;28;20481;-79
2023/12/29 03:06:37;;;;;;;25.13;17.73;;;;;;;9.68;77.31;101975.84;4967396;28;20264;-78
2023/12/29 03:09:04;;;;;;;23.92;18.63;;;;;;;9.68;77.21;101973.19;4975030;28;20060;-79
2023/12/29 03:11:34;;;;;;;28.92;20.38;;;;;;;9.71;76.77;101967.69;4963996;28;20050;-78
2023/12/29 03:14:02;;;;;;;33.42;22.92;;;;;;;9.78;76.77;101975.19;4966775;28;20081;-80
2023/12/29 03:16:29;;;;;;;35.03;24.60;;;;;;;9.69;77.29;101982.88;5010278;28;20480;-78
2023/12/29 03:18:56;;;;;;;36.28;25.77;;;;;;;9.21;77.52;101901.03;5002181;28;20246;-79
2023/12/29 03:21:23;;;;;;;49.90;31.48;;;;;;;9.70;77.81;101973.97;4997605;28;20138;-77
2023/12/29 03:23:50;;;;;;;48.65;30.77;;;;;;;9.59;78.23;101959.59;4989713;28;20040;-79
2023/12/29 03:26:17;;;;;;;48.35;30.95;;;;;;;9.49;78.29;101939.91;4979065;28;20045;-78
2023/12/29 03:28:47;;;;;;;53.40;35.05;;;;;;;9.58;77.78;101947.25;4983014;28;20048;-80
2023/12/29 03:31:13;;;;;;;53.42;36.60;;;;;;;9.69;78.16;101969.63;4985559;28;20055;-78
2023/12/29 03:33:40;;;;;;;58.92;35.95;;;;;;;9.61;78.55;101956.81;4997738;28;20076;-80
2023/12/29 03:36:09;;;;;;;57.00;38.75;;;;;;;9.54;78.32;101929.88;4960008;28;20558;-81
2023/12/29 03:38:36;;;;;;;65.22;42.17;;;;;;;9.38;77.99;101894.66;4951247;28;20046;-83
2023/12/29 03:41:04;;;;;;;64.22;43.72;;;;;;;9.44;78.23;101904.03;4955549;28;20525;-80
2023/12/29 03:43:30;;;;;;;66.22;44.15;;;;;;;9.19;78.42;101869.31;4984588;28;20053;-80
2023/12/29 03:45:57;;;;;;;76.88;46.28;;;;;;;9.67;78.59;101940.53;4960060;28;20053;-79
2023/12/29 03:48:24;;;;;;;74.72;44.22;;;;;;;9.51;78.63;101916.78;4980817;28;20053;-82
2023/12/29 03:50:54;;;;;;;77.10;48.42;;;;;;;9.71;79.41;101951.78;4931669;28;20057;-82
2023/12/29 03:53:25;;;;;;;73.95;48.50;;;;;;;9.71;78.90;101946.47;4970727;28;20053;-81
2023/12/29 03:55:58;;;;;;;72.15;46.33;;;;;;;9.58;78.83;101904.84;4973272;28;20548;-79
2023/12/29 03:58:31;;;;;;;73.65;47.83;;;;;;;9.83;78.38;101937.75;4957710;28;20065;-80
2023/12/29 04:01:02;;;;;;;75.85;48.28;;;;;;;9.71;78.61;101931.44;4947810;28;20720;-78
2023/12/29 04:03:29;;;;;;;78.05;50.22;;;;;;;9.62;78.85;101910.81;4942907;28;20056;-80
2023/12/29 04:05:56;;;;;;;75.72;49.20;;;;;;;9.70;79.33;101928.88;4972245;28;20193;-78
2023/12/29 04:08:27;;;;;;;82.05;51.13;;;;;;;9.61;79.74;101922.34;4965468;28;20143;-78
2023/12/29 04:10:57;;;;;;;83.87;51.27;;;;;;;9.67;79.62;101919.31;4964786;28;20579;-79
2023/12/29 04:13:26;;;;;;;83.85;53.40;;;;;;;9.42;80.01;101885.59;4970490;28;20148;-78
2023/12/29 04:15:53;;;;;;;83.97;54.50;;;;;;;9.75;80.30;101927.63;4998106;28;20509;-80
2023/12/29 04:18:21;;;;;;;83.68;53.67;;;;;;;9.40;80.65;101869.75;4978543;28;20053;-78
2023/12/29 04:20:53;;;;;;;88.20;53.13;;;;;;;9.72;80.48;101921.69;4989501;28;20049;-79
2023/12/29 04:23:25;;;;;;;85.88;54.92;;;;;;;9.85;80.30;101938.50;4997160;28;20518;-77
2023/12/29 04:25:52;;;;;;;83.25;53.97;;;;;;;9.81;80.92;101929.06;4990253;28;20084;-80
2023/12/29 04:28:19;;;;;;;86.40;53.95;;;;;;;9.71;80.45;101899.63;5010022;28;20088;-80
2023/12/29 04:30:46;;;;;;;76.75;51.80;;;;;;;9.77;80.75;101903.66;4990318;28;20511;-80
2023/12/29 04:33:13;;;;;;;83.45;54.90;;;;;;;9.38;80.47;101829.25;4967846;28;20172;-81
2023/12/29 04:35:39;;;;;;;85.00;52.75;;;;;;;9.84;80.92;101916.44;4977503;28;20050;-79
2023/12/29 04:38:06;;;;;;;88.50;52.95;;;;;;;9.38;80.84;101841.66;4951855;28;20053;-79
2023/12/29 04:40:33;;;;;;;89.03;52.72;;;;;;;9.59;81.02;101881.84;4958021;28;20347;-80
2023/12/29 04:42:59;;;;;;;88.55;55.40;;;;;;;9.52;81.21;101876.09;4950810;28;20497;-80
2023/12/29 04:45:26;;;;;;;84.03;54.55;;;;;;;9.30;81.92;101836.00;4947758;28;20050;-77
2023/12/29 04:47:56;;;;;;;88.25;54.47;;;;;;;9.68;81.51;101912.22;4968409;28;20528;-79
2023/12/29 04:50:29;;;;;;;93.50;56.22;;;;;;;9.76;81.40;101923.19;4976874;28;20060;-80
2023/12/29 04:52:56;;;;;;;86.53;52.83;;;;;;;9.68;82.01;101909.56;4963074;28;20190;-79
2023/12/29 04:55:23;;;;;;;83.13;53.17;;;;;;;9.43;81.81;101866.06;4975686;28;20041;-79
2023/12/29 04:57:50;;;;;;;90.60;56.55;;;;;;;9.70;81.96;101919.13;4974798;28;20050;-81
2023/12/29 05:00:17;;;;;;;84.32;53.13;;;;;;;9.61;81.93;101907.31;4971057;28;20576;-81
2023/12/29 05:02:45;;;;;;;89.63;54.80;;;;;;;9.51;81.95;101892.06;4986507;28;20539;-83
2023/12/29 05:05:12;;;;;;;82.50;53.85;;;;;;;9.61;82.35;101915.28;4956142;28;20053;-80
2023/12/29 05:07:40;;;;;;;81.32;52.78;;;;;;;9.45;82.05;101887.19;4967391;28;20049;-80
2023/12/29 05:10:08;;;;;;;86.93;55.83;;;;;;;9.23;82.58;101861.19;4946101;28;20086;-80
2023/12/29 05:12:35;;;;;;;83.80;53.83;;;;;;;9.46;82.55;101920.69;4942721;28;20517;-78
2023/12/29 05:15:02;;;;;;;87.63;54.63;;;;;;;9.28;82.96;101893.56;4959378;28;20045;-79
2023/12/29 05:17:33;;;;;;;86.85;53.28;;;;;;;9.36;83.26;101899.22;4975893;28;20050;-80
2023/12/29 05:20:01;;;;;;;85.78;55.47;;;;;;;9.25;83.13;101888.41;4977445;28;20049;-78
2023/12/29 05:22:28;;;;;;;86.97;52.08;;;;;;;8.91;82.68;101850.81;4968920;28;20057;-80
2023/12/29 05:24:59;;;;;;;81.40;50.80;;;;;;;9.31;83.18;101911.91;4969744;28;20078;-79
2023/12/29 05:27:27;;;;;;;89.25;55.20;;;;;;;9.13;83.66;101887.41;4956815;28;20193;-78
2023/12/29 05:29:54;;;;;;;84.22;54.70;;;;;;;8.65;83.58;101812.72;4951212;28;20081;-79
2023/12/29 05:32:21;;;;;;;84.18;55.05;;;;;;;9.22;83.75;101891.28;4981087;28;20054;-82
2023/12/29 05:34:49;;;;;;;84.68;53.22;;;;;;;9.30;83.08;101899.63;4963643;28;20045;-80
2023/12/29 05:37:16;;;;;;;87.28;51.67;;;;;;;9.32;83.36;101918.88;4983989;28;20076;-80
2023/12/29 05:39:43;;;;;;;83.20;53.03;;;;;;;9.25;83.22;101920.22;4972204;28;20053;-80
2023/12/29 05:42:13;;;;;;;84.65;54.53;;;;;;;9.24;83.41;101913.22;4973774;28;20486;-80
2023/12/29 05:44:42;;;;;;;80.90;50.75;;;;;;;9.10;83.46;101900.84;4975496;28;20046;-81
2023/12/29 05:47:12;;;;;;;82.10;51.13;;;;;;;9.04;83.47;101915.31;4965757;28;20060;-80
2023/12/29 05:49:39;;;;;;;86.47;51.83;;;;;;;8.93;83.63;101899.22;4961971;28;20252;-80
2023/12/29 05:52:08;;;;;;;76.78;49.60;;;;;;;8.91;83.63;101893.19;4969082;28;20251;-81
2023/12/29 05:54:38;;;;;;;84.65;49.47;;;;;;;9.15;84.54;101918.16;4957372;28;20517;-81
2023/12/29 05:57:05;;;;;;;74.40;46.75;;;;;;;9.08;84.06;101900.94;4945850;28;20306;-81
2023/12/29 05:59:32;;;;;;;86.95;49.35;;;;;;;9.21;84.05;101922.22;4948863;28;20498;-78
2023/12/29 06:02:05;;;;;;;79.18;49.20;;;;;;;9.28;83.52;101928.00;4939124;28;20070;-80
2023/12/29 06:04:33;;;;;;;88.32;49.88;;;;;;;9.23;83.29;101914.19;4977179;28;20085;-80
2023/12/29 06:07:00;;;;;;;77.15;48.78;;;;;;;9.26;82.81;101935.19;4948116;28;20504;-80
2023/12/29 06:09:27;;;;;;;74.35;47.85;;;;;;;9.01;82.83;101914.66;4970433;28;20049;-79
2023/12/29 06:11:53;;;;;;;79.10;49.45;;;;;;;8.82;83.34;101891.09;4953876;28;20046;-80
2023/12/29 06:14:20;;;;;;;67.13;42.72;;;;;;;8.87;82.79;101896.97;4977479;28;20235;-79
2023/12/29 06:16:49;;;;;;;72.22;44.60;;;;;;;8.99;82.83;101922.69;4984512;28;20083;-80
2023/12/29 06:19:16;;;;;;;66.32;43.50;;;;;;;8.82;82.65;101912.28;4988983;28;20466;-79
2023/12/29 06:21:47;;;;;;;68.28;44.33;;;;;;;8.75;82.86;101915.28;4988839;28;20060;-79
2023/12/29 06:24:15;;;;;;;69.80;43.47;;;;;;;8.65;82.95;101906.19;4983213;28;20836;-79
2023/12/29 06:26:43;;;;;;;62.88;40.05;;;;;;;8.64;83.36;101909.81;4989753;28;20414;-80
2023/12/29 06:29:10;;;;;;;63.13;37.60;;;;;;;8.48;83.58;101879.91;4986794;28;20055;-81
2023/12/29 06:31:41;;;;;;;46.72;30.02;;;;;;;8.14;82.58;101839.53;4986686;28;20052;-80
2023/12/29 06:34:12;;;;;;;52.42;34.78;;;;;;;8.49;83.07;101897.47;4990118;28;20628;-81
2023/12/29 06:36:42;;;;;;;43.38;29.63;;;;;;;8.29;83.06;101873.00;4954522;28;20487;-81
2023/12/29 06:39:09;;;;;;;38.00;25.92;;;;;;;8.22;83.26;101869.03;4961588;28;20100;-80
2023/12/29 06:41:39;;;;;;;41.58;25.95;;;;;;;8.50;82.80;101931.78;4957911;28;20053;-81
2023/12/29 06:44:08;;;;;;;34.83;22.38;;;;;;;8.51;82.24;101922.06;4961908;28;20453;-79
2023/12/29 06:46:37;;;;;;;40.03;25.48;;;;;;;8.47;82.54;101915.22;4951210;28;20295;-80
2023/12/29 06:49:06;;;;;;;42.15;23.20;;;;;;;8.55;82.62;101899.75;4944198;28;20125;-81
2023/12/29 06:51:33;;;;;;;35.50;22.48;;;;;;;8.51;81.47;101892.94;4942197;28;20058;-79
2023/12/29 06:54:00;;;;;;;33.17;23.17;;;;;;;8.52;81.66;101907.91;4970562;28;20157;-82
2023/12/29 06:56:27;;;;;;;33.70;22.80;;;;;;;8.50;81.68;101915.91;4958252;28;20507;-81
2023/12/29 06:58:53;;;;;;;31.63;21.25;;;;;;;8.56;81.91;101925.28;4949944;28;20046;-81
2023/12/29 07:01:20;;;;;;;33.08;22.25;;;;;;;8.51;82.14;101924.69;4940376;28;20411;-82
2023/12/29 07:03:47;;;;;;;32.78;20.33;;;;;;;7.98;81.61;101855.44;4952596;28;20057;-81
2023/12/29 07:06:18;;;;;;;32.85;21.67;;;;;;;8.43;81.54;101932.25;4942006;28;20054;-83
2023/12/29 07:08:47;;;;;;;41.78;21.58;;;;;;;8.23;82.10;101914.84;4973162;28;20049;-83
2023/12/29 07:11:14;;;;;;;33.83;21.38;;;;;;;8.33;81.72;101940.69;4979493;28;20052;-81
2023/12/29 07:13:41;;;;;;;35.42;21.45;;;;;;;7.86;82.27;101867.59;4985703;28;20080;-83
2023/12/29 07:16:08;;;;;;;38.50;22.58;;;;;;;8.11;82.47;101908.50;4974466;28;20662;-82
2023/12/29 07:18:35;;;;;;;29.98;20.13;;;;;;;8.22;82.55;101936.94;4994237;28;20053;-81
2023/12/29 07:21:03;;;;;;;36.42;22.88;;;;;;;7.97;82.38;101906.63;4967380;28;20769;-81
2023/12/29 07:23:39;;;;;;;39.58;23.15;;;;;;;8.14;82.50;101940.03;4980951;28;20053;-82
2023/12/29 07:26:15;;;;;;;33.88;23.15;;;;;;;8.24;82.88;101943.84;5001518;28;20049;-82
2023/12/29 07:28:45;;;;;;;38.80;24.77;;;;;;;8.15;83.03;101925.88;4999191;28;20140;-81
2023/12/29 07:31:12;;;;;;;44.42;26.00;;;;;;;8.31;83.58;101947.00;4989754;28;20048;-82
2023/12/29 07:33:39;;;;;;;44.83;27.05;;;;;;;8.17;83.54;101924.00;4990491;28;20436;-83
2023/12/29 07:36:10;;;;;;;42.25;25.83;;;;;;;8.40;83.48;101956.22;4929816;28;20046;-82
2023/12/29 07:38:37;;;;;;;49.15;29.83;;;;;;;8.39;84.00;101938.63;4959113;28;20136;-82
2023/12/29 07:41:04;;;;;;;48.10;27.80;;;;;;;8.48;83.24;101967.25;4965120;28;20069;-81
2023/12/29 07:43:31;;;;;;;43.92;28.77;;;;;;;8.42;83.56;101949.91;4972519;28;20401;-81
2023/12/29 07:45:58;;;;;;;52.22;29.17;;;;;;;8.50;83.97;101965.34;4960796;28;20077;-81
2023/12/29 07:48:25;;;;;;;49.17;30.42;;;;;;;8.49;83.65;101961.00;4931659;28;20057;-82
2023/12/29 07:50:52;;;;;;;54.55;32.30;;;;;;;8.65;84.31;101977.69;4966961;28;20063;-81
2023/12/29 07:53:22;;;;;;;61.92;33.55;;;;;;;8.31;83.93;101918.75;4959954;28;20235;-82
2023/12/29 07:55:52;;;;;;;52.22;32.08;;;;;;;8.39;83.93;101928.88;4930835;28;20426;-81
2023/12/29 07:58:19;;;;;;;53.00;32.47;;;;;;;8.42;83.95;101933.19;4915708;28;20548;-79
2023/12/29 08:00:46;;;;;;;50.13;31.75;;;;;;;8.52;84.30;101944.94;4930037;28;20427;-81
2023/12/29 08:03:13;;;;;;;63.00;36.28;;;;;;;8.45;84.31;101935.66;4959754;28;20061;-81
2023/12/29 08:05:40;;;;;;;58.22;33.50;;;;;;;8.60;84.62;101953.28;4951342;28;20046;-82
2023/12/29 08:08:06;;;;;;;56.95;34.72;;;;;;;8.83;84.00;101982.81;4948608;28;20391;-80
2023/12/29 08:10:33;;;;;;;62.70;38.25;;;;;;;8.85;83.99;101973.84;4938222;28;20535;-83
2023/12/29 08:13:00;;;;;;;63.58;37.60;;;;;;;8.83;83.77;101961.63;4953796;28;20473;-83
2023/12/29 08:15:27;;;;;;;69.63;38.47;;;;;;;8.54;83.77;101906.84;4965447;28;20449;-80
2023/12/29 08:18:02;;;;;;;62.95;39.42;;;;;;;8.96;83.65;101965.28;4952113;28;20465;-81
2023/12/29 08:20:34;;;;;;;63.38;39.80;;;;;;;9.14;83.22;101984.47;4945813;28;20067;-83
2023/12/29 08:23:03;;;;;;;68.00;39.88;;;;;;;9.06;83.84;101961.13;4989937;28;20076;-81
2023/12/29 08:25:30;;;;;;;62.45;37.72;;;;;;;9.03;83.44;101952.47;4969817;28;20045;-82
2023/12/29 08:27:59;;;;;;;67.43;39.28;;;;;;;9.07;83.88;101952.22;4981725;28;20128;-82
2023/12/29 08:30:27;;;;;;;67.75;41.03;;;;;;;9.03;83.61;101939.25;4976157;28;20053;-79
2023/12/29 08:32:59;;;;;;;71.15;41.17;;;;;;;9.25;83.62;101975.88;4992853;28;20057;-82
2023/12/29 08:35:25;;;;;;;70.43;41.42;;;;;;;9.24;83.42;101969.72;4972678;28;20646;-80
2023/12/29 08:37:52;;;;;;;75.18;43.28;;;;;;;9.38;83.73;101987.44;4952814;28;20437;-80
2023/12/29 08:40:19;;;;;;;79.82;46.70;;;;;;;9.60;83.64;102003.69;4943527;28;20584;-80
2023/12/29 08:42:46;;;;;;;83.78;47.88;;;;;;;9.62;83.51;101985.91;4950714;28;20135;-79
2023/12/29 08:45:13;;;;;;;84.63;48.38;;;;;;;9.73;82.96;101998.47;4960353;28;20413;-77
2023/12/29 08:47:40;;;;;;;79.72;47.10;;;;;;;9.56;82.46;101959.78;4943678;28;20052;-80
2023/12/29 08:50:07;;;;;;;80.03;48.33;;;;;;;9.88;82.39;101996.66;4953454;28;20438;-81
2023/12/29 08:52:34;;;;;;;86.15;48.25;;;;;;;9.91;82.03;101999.13;4964689;28;20059;-80
2023/12/29 08:55:01;;;;;;;84.93;49.75;;;;;;;9.87;82.45;101979.03;4930499;28;20104;-80
2023/12/29 08:57:27;;;;;;;83.30;49.75;;;;;;;9.86;81.85;101973.84;4945721;28;20429;-80
2023/12/29 08:59:55;;;;;;;84.47;49.80;;;;;;;10.13;82.51;102011.00;4959664;28;20517;-79
2023/12/29 09:02:24;;;;;;;81.95;50.45;;;;;;;10.08;82.31;102007.81;4958363;28;20397;-82
2023/12/29 09:04:51;;;;;;;84.55;48.28;;;;;;;10.19;81.76;102023.88;4980797;28;20639;-80
2023/12/29 09:07:17;;;;;;;84.88;51.38;;;;;;;10.20;82.03;102028.25;4991546;28;20049;-81
2023/12/29 09:09:44;;;;;;;85.15;49.45;;;;;;;10.22;81.91;102026.34;4979470;28;20492;-80
2023/12/29 09:12:11;;;;;;;79.68;49.03;;;;;;;9.92;81.31;101966.31;4956187;28;20149;-78
2023/12/29 09:14:38;;;;;;;88.35;52.65;;;;;;;9.99;81.27;101972.94;4988132;28;20107;-81
2023/12/29 09:17:05;;;;;;;83.32;49.10;;;;;;;10.20;81.72;102010.50;5002289;28;20053;-80
2023/12/29 09:19:36;;;;;;;80.60;48.05;;;;;;;10.48;81.52;102022.88;5002639;28;20515;-81
2023/12/29 09:22:06;;;;;;;76.05;46.30;;;;;;;10.58;80.54;102019.59;5005872;28;20576;-80
2023/12/29 09:24:40;;;;;;;79.75;46.60;;;;;;;10.44;80.64;102000.13;4983745;28;20053;-79
2023/12/29 09:27:07;;;;;;;82.00;47.78;;;;;;;10.61;80.77;102027.38;5021573;28;20400;-80
2023/12/29 09:29:34;;;;;;;81.50;49.60;;;;;;;9.65;81.08;101873.47;5001753;28;20136;-79
2023/12/29 09:32:01;;;;;;;81.90;48.20;;;;;;;10.38;81.05;101987.25;5006583;28;20553;-80
2023/12/29 09:34:31;;;;;;;79.57;47.65;;;;;;;10.73;80.65;102038.94;4991044;28;20406;-80
2023/12/29 09:36:58;;;;;;;79.35;48.38;;;;;;;10.79;80.47;102019.97;4959779;28;20694;-79
2023/12/29 09:39:25;;;;;;;82.63;46.47;;;;;;;10.93;79.89;102029.66;4956000;28;20100;-79
2023/12/29 09:41:55;;;;;;;78.40;47.30;;;;;;;10.77;79.87;101985.53;4956128;28;20786;-80
2023/12/29 09:44:28;;;;;;;77.32;45.80;;;;;;;11.08;79.62;102031.28;4944437;28;20253;-81
2023/12/29 09:46:57;;;;;;;84.47;47.78;;;;;;;11.03;79.76;102014.78;4955966;28;20108;-80
2023/12/29 09:49:25;;;;;;;85.22;47.33;;;;;;;10.87;79.66;101985.75;4931296;28;20053;-81
2023/12/29 09:51:53;;;;;;;77.15;47.15;;;;;;;11.03;79.21;102007.66;4959690;28;20560;-80
2023/12/29 09:54:21;;;;;;;82.35;46.08;;;;;;;11.17;79.09;102020.00;4978979;28;20056;-82
2023/12/29 09:56:49;;;;;;;85.35;49.55;;;;;;;11.13;79.01;102023.84;4992895;28;20085;-81
2023/12/29 09:59:17;;;;;;;82.97;48.42;;;;;;;10.50;78.82;101921.84;4973925;28;20045;-82
2023/12/29 10:01:46;;;;;;;75.07;43.33;;;;;;;11.09;78.49;102003.72;4961787;28;20410;-81
2023/12/29 10:04:14;;;;;;;78.97;45.95;;;;;;;11.10;78.45;102010.75;4980414;28;20520;-82
2023/12/29 10:06:46;;;;;;;68.07;43.20;;;;;;;11.13;78.50;102015.84;4989460;28;20041;-80
2023/12/29 10:09:19;;;;;;;74.20;42.95;;;;;;;11.04;78.42;101992.56;4968307;28;20441;-81
2023/12/29 10:11:52;;;;;;;79.55;44.80;;;;;;;11.17;77.82;102013.84;4965683;28;20085;-80
2023/12/29 10:14:24;;;;;;;79.10;45.35;;;;;;;11.17;77.55;102020.00;4957804;28;20137;-82
2023/12/29 10:16:57;;;;;;;79.07;44.00;;;;;;;11.01;77.81;101996.28;4994616;28;20122;-79
2023/12/29 10:19:39;;;;;;;70.97;45.53;;;;;;;11.03;77.91;101988.22;5003973;28;20565;-80
2023/12/29 10:22:21;;;;;;;67.60;42.50;;;;;;;11.18;78.12;102015.53;5001772;28;20415;-79
2023/12/29 10:24:50;;;;;;;;;;;;;;;11.13;77.91;102005.22;5007398;28;20136;-81
2023/12/29 10:27:18;;;;;;;74.57;43.88;;;;;;;10.26;77.88;101857.97;5011151;28;19964;-81
2023/12/29 10:29:45;;;;;;;76.70;44.75;;;;;;;11.18;78.26;102000.44;4990404;28;20516;-81
2023/12/29 10:32:12;;;;;;;77.47;46.50;;;;;;;11.04;78.35;101968.66;4988825;28;20095;-81
2023/12/29 10:34:39;;;;;;;85.85;48.22;;;;;;;11.07;77.96;101968.47;5001561;28;20049;-81
2023/12/29 10:37:13;;;;;;;74.25;46.05;;;;;;;11.12;77.04;101969.00;4985641;28;20455;-81
2023/12/29 10:39:56;;;;;;;80.18;46.65;;;;;;;10.80;77.18;101910.97;4963396;28;20058;-80
2023/12/29 10:42:23;;;;;;;71.80;43.53;;;;;;;11.24;77.37;101977.91;4968590;28;20042;-80
2023/12/29 10:45:05;;;;;;;74.25;45.22;;;;;;;11.27;76.49;101983.84;4959119;28;20048;-82
2023/12/29 10:47:32;;;;;;;76.30;45.65;;;;;;;11.15;76.69;101954.63;4965630;28;20045;-80
2023/12/29 10:50:00;;;;;;;82.60;46.03;;;;;;;11.31;76.73;101968.53;4965119;28;20292;-80
2023/12/29 10:52:32;;;;;;;75.03;45.70;;;;;;;10.40;76.41;101806.63;4982542;28;20046;-81
2023/12/29 10:55:09;;;;;;;77.80;46.70;;;;;;;11.28;76.22;101932.38;4963899;28;20054;-80
2023/12/29 10:57:37;;;;;;;77.03;46.67;;;;;;;11.29;76.29;101939.41;4952797;28;20057;-80
2023/12/29 11:00:09;;;;;;;80.85;47.85;;;;;;;11.29;76.65;101923.47;4948334;28;20046;-84
2023/12/29 11:02:36;;;;;;;82.00;47.08;;;;;;;11.39;76.16;101939.59;4958399;28;20116;-80
2023/12/29 11:05:08;;;;;;;82.80;47.25;;;;;;;11.47;76.16;101947.03;4975218;28;20290;-81
2023/12/29 11:07:39;;;;;;;82.85;47.88;;;;;;;11.09;76.19;101873.50;4989463;28;20064;-81
2023/12/29 11:10:09;;;;;;;75.03;43.75;;;;;;;11.24;76.48;101909.66;4968948;28;20458;-79
2023/12/29 11:12:38;;;;;;;79.75;45.97;;;;;;;11.39;76.25;101922.81;4977321;28;20504;-80
2023/12/29 11:15:06;;;;;;;83.45;46.72;;;;;;;11.45;76.76;101927.69;4976922;28;20061;-80
2023/12/29 11:17:35;;;;;;;87.07;48.63;;;;;;;11.43;77.03;101909.19;4982158;28;20041;-80
2023/12/29 11:20:04;;;;;;;85.22;49.40;;;;;;;11.55;77.56;101928.72;5007264;28;20455;-80
2023/12/29 11:22:32;;;;;;;84.22;48.40;;;;;;;11.45;76.94;101909.91;5012797;28;20049;-80